createdAt,value
2022-09-26T00:03:53.862Z,247.20
2022-09-26T00:14:01.096Z,40.70
2022-09-26T00:24:07.369Z,38.50
2022-09-26T00:34:17.205Z,34.50
2022-09-26T00:44:55.578Z,37.40
2022-09-26T00:55:03.613Z,36.20
2022-09-26T01:05:11.874Z,34.30
2022-09-26T01:15:18.003Z,34.30
2022-09-26T01:25:51.850Z,33.60
2022-09-26T01:36:27.371Z,31.90
2022-09-26T01:46:42.541Z,32.90
2022-09-26T01:56:49.338Z,33.30
2022-09-26T02:07:03.277Z,32.60
2022-09-26T02:17:14.259Z,34.80
2022-09-26T02:27:20.650Z,32.40
2022-09-26T02:37:26.848Z,31.80
2022-09-26T02:47:47.926Z,37.20
2022-09-26T02:58:12.754Z,37.20
2022-09-26T03:08:21.685Z,36.60
2022-09-26T03:18:31.129Z,36.40
2022-09-26T03:28:38.223Z,36.90
2022-09-26T03:38:43.476Z,39.60
2022-09-26T03:48:52.000Z,38.70
2022-09-26T03:58:58.073Z,42.30
2022-09-26T04:09:04.430Z,42.60
2022-09-26T04:19:10.615Z,42.70
2022-09-26T04:29:17.089Z,42.40
2022-09-26T04:39:23.469Z,47.20
2022-09-26T04:49:30.438Z,47.60
2022-09-26T04:59:36.517Z,49.60
2022-09-26T05:09:43.992Z,51.10
2022-09-26T05:19:50.141Z,51.50
2022-09-26T05:29:57.057Z,51.40
2022-09-26T05:40:21.897Z,49.30
2022-09-26T05:50:28.412Z,50.00
2022-09-26T06:00:35.022Z,49.90
2022-09-26T06:10:41.379Z,49.00
2022-09-26T06:20:47.403Z,49.70
2022-09-26T06:30:53.872Z,51.80
2022-09-26T06:41:00.067Z,49.40
2022-09-26T06:51:06.253Z,49.90
2022-09-26T07:01:13.059Z,47.60
2022-09-26T07:21:45.399Z,47.60
2022-09-26T07:31:51.580Z,45.10
2022-09-26T07:41:57.708Z,44.10
2022-09-26T07:52:03.808Z,43.40
2022-09-26T08:02:21.934Z,42.30
2022-09-26T08:12:28.226Z,38.10
2022-09-26T08:22:34.215Z,34.20
2022-09-26T08:32:40.254Z,35.70
2022-09-26T08:43:07.925Z,32.30
2022-09-26T08:53:17.266Z,33.40
2022-09-26T09:03:37.942Z,31.70
2022-09-26T09:13:44.068Z,30.20
2022-09-26T09:24:25.729Z,26.90
2022-09-26T09:34:39.520Z,24.40
2022-09-26T09:44:46.980Z,22.10
2022-09-26T09:55:11.676Z,20.50
2022-09-26T10:05:20.762Z,20.40
2022-09-26T10:15:28.496Z,20.60
2022-09-26T10:25:34.609Z,19.50
2022-09-26T10:35:44.868Z,17.30
2022-09-26T10:45:54.868Z,15.40
2022-09-26T10:56:03.301Z,17.90
2022-09-26T11:06:28.162Z,17.90
2022-09-26T11:16:40.941Z,15.90
2022-09-26T11:27:06.954Z,14.00
2022-09-26T11:37:21.675Z,9.90
2022-09-26T11:47:47.657Z,8.10
2022-09-26T11:58:12.837Z,7.40
2022-09-26T12:08:22.820Z,7.50
2022-09-26T12:18:55.384Z,5.80
2022-09-26T12:29:14.405Z,5.00
2022-09-26T12:39:32.821Z,5.80
2022-09-26T12:49:42.993Z,6.70
2022-09-26T13:00:01.232Z,7.70
2022-09-26T13:10:13.333Z,9.70
2022-09-26T13:20:20.069Z,7.70
2022-09-26T13:30:28.670Z,7.90
2022-09-26T13:40:48.388Z,8.30
2022-09-26T13:50:57.319Z,9.20
2022-09-26T14:01:23.365Z,10.60
2022-09-26T14:11:52.701Z,12.80
2022-09-26T14:22:03.951Z,11.40
2022-09-26T14:32:11.382Z,11.70
2022-09-26T14:42:26.687Z,12.20
2022-09-26T14:52:33.462Z,12.00
2022-09-26T15:02:41.052Z,12.50
2022-09-26T15:12:50.157Z,8.20
2022-09-26T15:22:58.483Z,6.40
2022-09-26T15:33:05.359Z,8.10
2022-09-26T15:43:11.396Z,6.30
2022-09-26T15:53:35.978Z,10.10
2022-09-26T16:03:46.060Z,12.70
2022-09-26T16:13:52.924Z,12.90
2022-09-26T16:24:00.449Z,10.60
2022-09-26T16:34:19.034Z,8.80
2022-09-26T16:44:51.507Z,9.90
2022-09-26T16:55:02.001Z,18.50
2022-09-26T17:05:19.646Z,13.70
2022-09-26T17:15:29.343Z,12.60
2022-09-26T17:25:36.378Z,13.60
2022-09-26T17:35:43.444Z,32.40
2022-09-26T17:45:52.059Z,31.40
2022-09-26T17:55:58.273Z,32.50
2022-09-26T18:06:04.800Z,28.60
2022-09-26T18:16:12.432Z,26.70
2022-09-26T18:26:24.393Z,25.70
2022-09-26T18:36:32.795Z,23.70
2022-09-26T18:46:39.172Z,33.00
2022-09-26T18:57:04.125Z,29.20
2022-09-26T19:07:11.994Z,35.80
2022-09-26T19:17:18.181Z,29.80
2022-09-26T19:27:29.182Z,28.70
2022-09-26T19:37:35.547Z,25.20
2022-09-26T19:47:44.158Z,27.20
2022-09-26T19:57:50.330Z,26.70
2022-09-26T20:07:56.414Z,28.50
2022-09-26T20:18:02.651Z,29.80
2022-09-26T20:28:10.682Z,28.60
2022-09-26T20:38:49.257Z,30.70
2022-09-26T20:48:55.352Z,29.10
2022-09-26T20:59:01.402Z,25.70
2022-09-26T21:09:08.338Z,25.10
2022-09-26T21:19:19.334Z,23.30
2022-09-26T21:29:25.480Z,28.90
2022-09-26T21:39:31.821Z,27.80
2022-09-26T21:49:37.940Z,25.20
2022-09-26T21:59:44.414Z,26.20
2022-09-26T22:09:50.502Z,24.70
2022-09-26T22:19:56.546Z,24.60
2022-09-26T22:30:02.849Z,22.70
2022-09-26T22:40:09.227Z,20.20
2022-09-26T22:50:15.375Z,28.10
2022-09-26T23:00:21.411Z,33.80
2022-09-26T23:10:27.492Z,32.30
2022-09-26T23:20:33.508Z,35.30
2022-09-26T23:30:39.712Z,38.30
2022-09-26T23:40:48.275Z,33.70
2022-09-26T23:50:54.540Z,39.00
